Terminal Aerodrome Forecast
Issued by NWS Bismarck, ND

Home | Current Version | Previous Version | Text Only | Print | Product List | Glossary On
Versions: 1 2 3 4 5 6 7 8 9 10 11 12 13 14 15 16 17 18 19 20 21 22 23 24 25 26
000
FTUS43 KBIS 242138 AAC
TAFISN
TAF AMD
KISN 242138Z 2422/2518 36019G25KT 6SM -SHRA BR FEW006 OVC018
      TEMPO 2422/2424 3SM -SHRA BR
     FM250000 34017G24KT 4SM -SHRA BR OVC005
     FM250700 32017G25KT 5SM -SHRA BR OVC007
     FM250900 32017G25KT P6SM BKN035=

USA.gov is the U.S. government's official web portal to all federal, state and local government web resources and services.